Time;durP1;ratioP1;P1;durP2;ratioP2;P2;SDS_P1;SDS_P2;PMS_P1;PMS_P2;Temp;Humidity;BMP_temperature;BMP_pressure;BME280_temperature;BME280_humidity;BME280_pressure;Samples;Min_cycle;Max_cycle;Signal;HPM_P1;HPM_P2
2022/12/17 13:07:30;;;;;;;13.30;5.78;;;3.50;99.90;;;;;;5044147;28;20061;-43
2022/12/17 13:09:56;;;;;;;14.88;5.40;;;3.50;99.90;;;;;;5047420;28;20061;-45
2022/12/17 13:12:23;;;;;;;13.50;6.10;;;3.50;99.90;;;;;;5052192;28;20041;-46
2022/12/17 13:14:50;;;;;;;12.43;5.57;;;3.50;99.90;;;;;;5043928;28;20097;-46
2022/12/17 13:17:17;;;;;;;13.93;6.55;;;3.50;99.90;;;;;;5033081;28;20103;-51
2022/12/17 13:19:44;;;;;;;12.25;5.85;;;3.50;99.90;;;;;;5033522;28;20041;-48
2022/12/17 13:22:11;;;;;;;10.60;5.43;;;3.40;99.90;;;;;;5034285;28;20041;-50
2022/12/17 13:24:38;;;;;;;12.77;5.75;;;3.40;99.90;;;;;;5034125;28;20115;-45
2022/12/17 13:27:05;;;;;;;11.52;5.32;;;3.40;99.90;;;;;;5037226;28;20120;-49
2022/12/17 13:29:31;;;;;;;11.18;5.85;;;3.40;99.90;;;;;;5034247;28;20124;-45
2022/12/17 13:31:58;;;;;;;10.70;6.30;;;3.40;99.90;;;;;;5037107;28;20048;-45
2022/12/17 13:34:25;;;;;;;9.77;6.07;;;3.40;99.90;;;;;;5034013;28;20042;-47
2022/12/17 13:36:52;;;;;;;10.00;6.30;;;3.40;99.90;;;;;;5044537;28;20049;-44
2022/12/17 13:39:19;;;;;;;10.60;6.00;;;3.40;99.90;;;;;;5039237;28;20069;-43
2022/12/17 13:41:46;;;;;;;14.10;6.57;;;3.50;99.90;;;;;;5043268;28;20072;-45
2022/12/17 13:44:13;;;;;;;13.55;6.13;;;3.50;99.90;;;;;;5038205;28;20446;-45
2022/12/17 13:46:40;;;;;;;14.40;6.57;;;3.50;99.90;;;;;;5033904;28;20045;-46
2022/12/17 13:49:12;;;;;;;13.38;6.85;;;3.50;99.90;;;;;;5034568;28;20045;-47
2022/12/17 13:51:39;;;;;;;12.30;6.75;;;3.50;99.90;;;;;;5038244;28;20069;-43
2022/12/17 13:54:06;;;;;;;15.32;6.93;;;3.50;99.90;;;;;;5033944;28;20038;-46
2022/12/17 13:56:33;;;;;;;18.13;7.45;;;3.50;99.90;;;;;;5034199;28;20107;-45
2022/12/17 13:59:01;;;;;;;16.27;7.65;;;3.60;99.90;;;;;;5036135;28;20085;-46
2022/12/17 14:01:34;;;;;;;18.10;8.48;;;3.60;99.90;;;;;;5051403;28;20052;-45
2022/12/17 14:04:01;;;;;;;15.60;8.57;;;3.60;99.90;;;;;;5036258;28;20049;-46
2022/12/17 14:06:33;;;;;;;14.18;8.68;;;3.60;99.90;;;;;;5053208;28;20110;-46
2022/12/17 14:08:59;;;;;;;14.73;8.65;;;3.60;99.90;;;;;;5051228;28;20041;-48
2022/12/17 14:14:12;;;;;;;13.13;9.23;;;3.60;99.90;;;;;;5033280;28;20049;-47
2022/12/17 14:16:39;;;;;;;14.40;9.23;;;3.60;99.90;;;;;;5049495;28;20300;-47
2022/12/17 14:19:11;;;;;;;15.48;9.43;;;3.60;99.90;;;;;;5050840;28;20045;-47
2022/12/17 14:21:40;;;;;;;14.48;8.82;;;3.60;99.90;;;;;;5045481;28;20128;-44
2022/12/17 14:24:06;;;;;;;12.68;8.30;;;3.60;99.90;;;;;;5052586;28;20420;-50
2022/12/17 14:26:33;;;;;;;14.68;9.20;;;3.60;99.90;;;;;;5043700;28;20042;-45
2022/12/17 14:29:00;;;;;;;15.60;10.00;;;3.60;99.90;;;;;;5034920;28;20129;-46
2022/12/17 14:31:27;;;;;;;14.80;10.30;;;3.60;99.90;;;;;;5032722;28;20575;-46
2022/12/17 14:33:54;;;;;;;13.40;9.10;;;3.60;99.90;;;;;;5038105;28;20076;-50
2022/12/17 14:36:22;;;;;;;14.95;8.75;;;3.60;99.90;;;;;;5062856;28;20087;-49
2022/12/17 14:38:49;;;;;;;13.27;8.95;;;3.50;99.90;;;;;;5033428;28;20484;-47
2022/12/17 14:44:02;;;;;;;13.30;8.60;;;3.60;99.90;;;;;;5049418;28;20071;-51
2022/12/17 14:46:28;;;;;;;12.43;8.18;;;3.60;99.90;;;;;;5038214;28;20710;-44
2022/12/17 14:49:02;;;;;;;16.83;9.75;;;3.60;99.90;;;;;;5042678;28;20045;-43
2022/12/17 14:51:29;;;;;;;12.55;8.45;;;3.60;99.90;;;;;;5035954;28;20412;-46
2022/12/17 14:53:55;;;;;;;11.75;8.30;;;3.60;99.90;;;;;;5037114;28;20091;-45
2022/12/17 14:56:22;;;;;;;16.10;7.85;;;3.70;99.90;;;;;;5032995;28;20037;-47
2022/12/17 14:58:49;;;;;;;12.18;7.57;;;3.70;99.90;;;;;;5031921;28;20069;-49
2022/12/17 15:01:16;;;;;;;13.10;7.70;;;3.70;99.90;;;;;;5032909;28;20041;-49
2022/12/17 15:03:44;;;;;;;12.20;7.03;;;3.70;99.90;;;;;;5031915;28;20073;-45
2022/12/17 15:06:11;;;;;;;11.10;7.10;;;3.70;99.90;;;;;;5032520;28;20053;-46
2022/12/17 15:08:38;;;;;;;12.50;6.70;;;3.70;99.90;;;;;;5031908;28;20153;-45
2022/12/17 15:11:05;;;;;;;11.48;6.55;;;3.70;99.90;;;;;;5032990;28;20037;-48
2022/12/17 15:13:32;;;;;;;10.23;6.03;;;3.70;99.90;;;;;;5051529;28;20098;-49
2022/12/17 15:15:59;;;;;;;11.07;6.82;;;3.70;99.90;;;;;;5052089;28;20068;-44
2022/12/17 15:18:26;;;;;;;11.13;7.70;;;3.70;99.90;;;;;;5051970;28;20107;-53
2022/12/17 15:20:53;;;;;;;9.40;6.88;;;3.60;99.90;;;;;;5051967;28;20049;-48
2022/12/17 15:23:20;;;;;;;8.63;6.20;;;3.60;99.90;;;;;;5045862;28;20120;-51
2022/12/17 15:25:47;;;;;;;11.55;5.97;;;3.60;99.90;;;;;;5032837;28;20104;-47
2022/12/17 15:28:13;;;;;;;9.85;6.35;;;3.60;99.90;;;;;;5032636;28;20378;-49
2022/12/17 15:30:40;;;;;;;9.77;6.00;;;3.50;99.90;;;;;;5032700;28;20420;-49
2022/12/17 15:33:07;;;;;;;10.98;6.93;;;3.50;99.90;;;;;;5032754;28;20103;-45
2022/12/17 15:35:34;;;;;;;10.20;6.25;;;3.50;99.90;;;;;;5032506;28;20103;-47
2022/12/17 15:38:00;;;;;;;9.25;6.10;;;3.40;99.90;;;;;;5032792;28;20044;-45
2022/12/17 15:40:27;;;;;;;8.73;5.68;;;3.40;99.90;;;;;;5032538;28;20045;-50
2022/12/17 15:43:12;;;;;;;8.07;4.82;;;3.30;99.90;;;;;;5042841;28;20558;-46
2022/12/17 15:45:39;;;;;;;10.52;5.13;;;3.20;99.90;;;;;;5034512;28;20454;-50
2022/12/17 15:48:06;;;;;;;8.60;5.05;;;3.20;99.90;;;;;;5040198;28;20378;-48
2022/12/17 15:50:33;;;;;;;7.90;5.25;;;3.20;99.90;;;;;;5031847;28;20128;-48
2022/12/17 15:53:00;;;;;;;7.63;5.53;;;3.10;99.90;;;;;;5032348;28;20437;-50
2022/12/17 15:55:26;;;;;;;8.95;5.47;;;3.10;99.90;;;;;;5035393;28;20076;-48
2022/12/17 15:57:53;;;;;;;12.35;5.95;;;3.00;99.90;;;;;;5054788;28;20033;-47
2022/12/17 16:00:20;;;;;;;10.85;5.90;;;3.00;99.90;;;;;;5054536;28;20072;-51
2022/12/17 16:02:47;;;;;;;9.23;5.97;;;2.90;99.90;;;;;;5033958;28;20558;-47
2022/12/17 16:05:14;;;;;;;10.00;6.30;;;2.90;99.90;;;;;;5035568;28;20128;-51
2022/12/17 16:07:42;;;;;;;14.63;7.60;;;2.80;99.90;;;;;;5045970;28;20057;-47
2022/12/17 16:10:09;;;;;;;12.10;7.72;;;2.80;99.90;;;;;;5041154;28;20053;-45
2022/12/17 16:12:35;;;;;;;11.80;6.85;;;2.80;99.90;;;;;;5039685;28;20088;-44
2022/12/17 16:15:03;;;;;;;7.68;5.68;;;2.70;99.90;;;;;;5050399;28;20041;-48
2022/12/17 16:17:30;;;;;;;10.07;5.60;;;2.70;99.90;;;;;;5034556;28;20049;-44
2022/12/17 16:19:56;;;;;;;8.50;5.45;;;2.70;99.90;;;;;;5034399;28;20037;-47
2022/12/17 16:22:23;;;;;;;8.48;5.40;;;2.70;99.90;;;;;;5034477;28;20046;-44
2022/12/17 16:24:51;;;;;;;9.35;5.22;;;2.70;99.90;;;;;;5035166;28;20124;-46
2022/12/17 16:27:18;;;;;;;10.75;5.10;;;2.60;99.90;;;;;;5038189;28;20041;-47
2022/12/17 16:29:46;;;;;;;8.20;5.00;;;2.60;99.90;;;;;;5050414;28;20072;-48
2022/12/17 16:32:13;;;;;;;8.60;5.18;;;2.60;99.90;;;;;;5052280;28;20033;-46
2022/12/17 16:34:40;;;;;;;10.43;5.82;;;2.60;99.90;;;;;;5048659;28;20073;-47
2022/12/17 16:37:07;;;;;;;9.43;6.20;;;2.50;99.90;;;;;;5050916;28;20040;-47
2022/12/17 16:39:34;;;;;;;9.23;6.05;;;2.40;99.90;;;;;;5054150;28;20120;-49
2022/12/17 16:42:00;;;;;;;9.30;6.47;;;2.40;99.90;;;;;;5043214;28;20099;-48
2022/12/17 16:44:27;;;;;;;8.63;6.10;;;2.40;99.90;;;;;;5053080;28;20109;-46
2022/12/17 16:46:54;;;;;;;10.65;6.68;;;2.30;99.90;;;;;;5053878;28;20450;-49
2022/12/17 16:49:21;;;;;;;14.80;7.30;;;2.30;99.90;;;;;;5053848;28;20190;-48
2022/12/17 16:51:48;;;;;;;9.77;5.97;;;2.20;99.90;;;;;;5053559;28;20121;-45
2022/12/17 16:54:15;;;;;;;9.75;6.82;;;2.20;99.90;;;;;;5050452;28;20055;-50
2022/12/17 16:56:41;;;;;;;10.15;6.88;;;2.20;99.90;;;;;;5037320;28;20111;-45
2022/12/17 16:59:08;;;;;;;11.02;6.82;;;2.10;99.90;;;;;;5033796;28;20107;-53
2022/12/17 17:01:35;;;;;;;9.90;7.63;;;2.10;99.90;;;;;;5034142;28;20052;-45
2022/12/17 17:04:02;;;;;;;17.08;9.90;;;2.10;99.90;;;;;;5034777;28;20345;-45
2022/12/17 17:06:28;;;;;;;16.55;9.75;;;2.00;99.90;;;;;;5037614;28;20052;-50
2022/12/17 17:08:59;;;;;;;17.52;11.15;;;2.00;99.90;;;;;;5052983;28;20060;-50
2022/12/17 17:11:26;;;;;;;21.60;12.77;;;2.00;99.90;;;;;;5053276;28;20087;-44
2022/12/17 17:13:53;;;;;;;22.38;15.68;;;2.00;99.90;;;;;;5053473;28;20102;-47
2022/12/17 17:16:19;;;;;;;27.02;18.70;;;1.90;99.90;;;;;;5048317;28;20170;-51
2022/12/17 17:18:46;;;;;;;28.02;19.17;;;1.90;99.90;;;;;;5034412;28;20378;-48
2022/12/17 17:21:13;;;;;;;36.83;24.90;;;1.90;99.90;;;;;;5034498;28;20500;-51
2022/12/17 17:23:40;;;;;;;50.30;37.92;;;1.80;99.90;;;;;;5035860;28;20037;-46
2022/12/17 17:26:07;;;;;;;41.65;31.55;;;1.80;99.90;;;;;;5034272;28;20099;-48
2022/12/17 17:28:33;;;;;;;34.65;25.65;;;1.80;99.90;;;;;;5034228;28;20049;-47
2022/12/17 17:31:01;;;;;;;25.42;18.10;;;1.70;99.90;;;;;;5034126;28;20038;-51
2022/12/17 17:33:27;;;;;;;27.40;19.20;;;1.70;99.90;;;;;;5034161;28;20045;-50
2022/12/17 17:35:54;;;;;;;20.95;15.20;;;1.70;99.90;;;;;;5050852;28;20049;-47
2022/12/17 17:38:27;;;;;;;23.13;15.90;;;1.60;99.90;;;;;;5053133;28;20044;-50
2022/12/17 17:40:54;;;;;;;27.75;17.10;;;1.50;99.90;;;;;;5053359;28;20459;-47
2022/12/17 17:43:21;;;;;;;27.58;17.38;;;1.50;99.90;;;;;;5052018;28;20482;-44
2022/12/17 17:45:47;;;;;;;23.48;15.57;;;1.50;99.90;;;;;;5053235;28;20095;-46
2022/12/17 17:48:14;;;;;;;23.63;16.05;;;1.40;99.90;;;;;;5053086;28;20045;-47
2022/12/17 17:50:41;;;;;;;19.88;14.60;;;1.40;99.90;;;;;;5053174;28;20083;-48
2022/12/17 17:53:08;;;;;;;23.27;14.75;;;1.30;99.90;;;;;;5053014;28;20037;-46
2022/12/17 17:55:34;;;;;;;24.35;16.05;;;1.30;99.90;;;;;;5053006;28;20128;-45
2022/12/17 17:58:01;;;;;;;18.98;14.50;;;1.20;99.90;;;;;;5053060;28;20384;-46
2022/12/17 18:00:28;;;;;;;21.80;14.65;;;1.20;99.90;;;;;;5051314;28;20076;-47
2022/12/17 18:02:54;;;;;;;24.17;16.92;;;1.20;99.90;;;;;;5033709;28;20046;-46
2022/12/17 18:05:22;;;;;;;21.92;17.10;;;1.10;99.90;;;;;;5046355;28;20132;-47
2022/12/17 18:07:48;;;;;;;26.73;19.35;;;1.10;99.90;;;;;;5051978;28;20075;-45
2022/12/17 18:10:15;;;;;;;27.90;20.73;;;1.10;99.90;;;;;;5049013;28;20040;-45
2022/12/17 18:15:27;;;;;;;25.60;18.75;;;1.10;99.90;;;;;;5036093;28;20075;-48
2022/12/17 18:17:54;;;;;;;29.60;18.95;;;1.00;99.90;;;;;;5052667;28;20051;-47
2022/12/17 18:20:20;;;;;;;26.90;18.40;;;1.00;99.90;;;;;;5052804;28;20044;-47
2022/12/17 18:22:49;;;;;;;26.25;17.80;;;1.00;99.90;;;;;;5052660;28;20124;-47
2022/12/17 18:25:16;;;;;;;25.65;18.30;;;0.90;99.90;;;;;;5052567;28;20496;-45
2022/12/17 18:27:43;;;;;;;33.90;19.73;;;1.00;99.90;;;;;;5052584;28;20148;-49
2022/12/17 18:30:10;;;;;;;24.27;17.20;;;0.90;99.90;;;;;;5052336;28;20087;-45
2022/12/17 18:32:36;;;;;;;27.25;16.70;;;0.90;99.90;;;;;;5052236;28;20045;-43
2022/12/17 18:35:03;;;;;;;27.58;18.10;;;0.90;99.90;;;;;;5052427;28;20044;-50
2022/12/17 18:37:30;;;;;;;30.90;17.75;;;0.90;99.90;;;;;;5037516;28;20084;-46
2022/12/17 18:39:56;;;;;;;26.50;18.08;;;0.90;99.90;;;;;;5033309;28;20065;-44
2022/12/17 18:45:08;;;;;;;23.23;16.57;;;0.90;99.90;;;;;;5052176;28;20049;-47
2022/12/17 18:47:35;;;;;;;24.33;16.92;;;0.90;99.90;;;;;;5052248;28;20274;-47
2022/12/17 18:50:02;;;;;;;23.15;16.75;;;0.80;99.90;;;;;;5052455;28;20548;-47
2022/12/17 18:52:29;;;;;;;22.50;16.13;;;0.80;99.90;;;;;;5035496;28;20049;-47
2022/12/17 18:54:55;;;;;;;24.30;16.13;;;0.80;99.90;;;;;;5035386;28;20444;-44
2022/12/17 18:57:22;;;;;;;22.77;16.45;;;0.70;99.90;;;;;;5032927;28;20403;-47
2022/12/17 18:59:49;;;;;;;23.35;15.68;;;0.70;99.90;;;;;;5033068;28;20092;-47
2022/12/17 19:02:15;;;;;;;22.88;15.10;;;0.70;99.90;;;;;;5033062;28;20049;-47
2022/12/17 19:04:42;;;;;;;22.05;14.93;;;0.60;99.90;;;;;;5033116;28;20052;-51
2022/12/17 19:07:09;;;;;;;24.98;15.40;;;0.60;99.90;;;;;;5034279;28;20048;-47
2022/12/17 19:09:38;;;;;;;20.98;15.43;;;0.60;99.90;;;;;;5052157;28;20066;-44
2022/12/17 19:12:05;;;;;;;22.33;15.05;;;0.50;99.90;;;;;;5051750;28;20434;-45
2022/12/17 19:14:32;;;;;;;23.00;14.77;;;0.50;99.90;;;;;;5051723;28;20488;-46
2022/12/17 19:16:59;;;;;;;22.85;14.43;;;0.50;99.90;;;;;;5043656;28;20053;-45
2022/12/17 19:19:25;;;;;;;23.75;14.05;;;0.50;99.90;;;;;;5033060;28;20396;-44
2022/12/17 19:21:53;;;;;;;22.85;13.48;;;0.50;99.90;;;;;;5047682;28;20048;-43
2022/12/17 19:24:20;;;;;;;21.15;13.65;;;0.50;99.90;;;;;;5045834;28;20038;-43
2022/12/17 19:26:47;;;;;;;20.25;13.23;;;0.50;99.90;;;;;;5036844;28;20042;-43
2022/12/17 19:29:14;;;;;;;19.70;12.75;;;0.50;99.90;;;;;;5045677;28;20063;-45
2022/12/17 19:31:41;;;;;;;20.92;13.38;;;0.50;99.90;;;;;;5050773;28;20388;-44
2022/12/17 19:34:07;;;;;;;22.23;14.60;;;0.50;99.90;;;;;;5038806;28;20037;-43
2022/12/17 19:36:34;;;;;;;20.45;13.80;;;0.40;99.90;;;;;;5039225;28;20037;-45
2022/12/17 19:39:01;;;;;;;22.25;14.07;;;0.40;99.90;;;;;;5038762;28;20049;-46
2022/12/17 19:41:27;;;;;;;24.58;15.77;;;0.30;99.90;;;;;;5039827;28;20069;-46
2022/12/17 19:43:54;;;;;;;23.48;14.35;;;0.30;99.90;;;;;;5045968;28;20087;-44
2022/12/17 19:46:21;;;;;;;27.58;16.50;;;0.30;99.90;;;;;;5040326;28;20127;-45
2022/12/17 19:48:48;;;;;;;24.60;15.82;;;0.30;99.90;;;;;;5035942;28;21097;-44
2022/12/17 19:51:16;;;;;;;24.35;15.52;;;0.30;99.90;;;;;;5043904;28;20057;-50
2022/12/17 19:53:42;;;;;;;26.20;16.10;;;0.30;99.90;;;;;;5046480;28;20041;-43
2022/12/17 19:56:09;;;;;;;24.58;16.58;;;0.30;99.90;;;;;;5036914;28;20041;-48
2022/12/17 19:58:36;;;;;;;24.00;15.57;;;0.30;99.90;;;;;;5047437;28;20037;-42
2022/12/17 20:01:03;;;;;;;25.63;16.55;;;0.20;99.90;;;;;;5045400;28;20042;-46
2022/12/17 20:03:30;;;;;;;31.35;20.27;;;0.20;99.90;;;;;;5035883;28;20502;-43
2022/12/17 20:05:57;;;;;;;36.65;21.90;;;0.20;99.90;;;;;;5035586;28;20500;-47
2022/12/17 20:08:23;;;;;;;38.22;23.63;;;0.20;99.90;;;;;;5034714;28;20099;-45
2022/12/17 20:10:51;;;;;;;42.50;23.88;;;0.10;99.90;;;;;;5036653;28;20041;-43
2022/12/17 20:13:17;;;;;;;40.05;22.45;;;0.10;99.90;;;;;;5044618;28;20136;-47
2022/12/17 20:15:44;;;;;;;42.55;22.65;;;0.10;99.90;;;;;;5035593;28;20057;-45
2022/12/17 20:18:11;;;;;;;44.15;25.90;;;0.20;99.90;;;;;;5039979;28;20049;-44
2022/12/17 20:20:38;;;;;;;42.88;23.23;;;0.20;99.90;;;;;;5052494;28;20045;-43
2022/12/17 20:23:06;;;;;;;37.63;21.65;;;0.20;99.90;;;;;;5054229;28;20049;-46
2022/12/17 20:25:33;;;;;;;38.05;22.20;;;0.20;99.90;;;;;;5039426;28;20073;-44
2022/12/17 20:27:59;;;;;;;48.70;25.92;;;0.20;99.90;;;;;;5047985;28;20051;-45
2022/12/17 20:30:26;;;;;;;53.15;28.33;;;0.20;99.90;;;;;;5035723;28;20049;-49
2022/12/17 20:32:53;;;;;;;53.80;28.70;;;0.20;99.90;;;;;;5046245;28;20179;-50
2022/12/17 20:35:20;;;;;;;48.50;27.05;;;0.10;99.90;;;;;;5050049;28;20090;-50
2022/12/17 20:37:47;;;;;;;45.25;25.83;;;0.20;99.90;;;;;;5038578;28;20040;-47
2022/12/17 20:40:14;;;;;;;49.35;27.42;;;0.10;99.90;;;;;;5046978;28;20045;-45
2022/12/17 20:42:40;;;;;;;43.28;26.05;;;0.20;99.90;;;;;;5051782;28;20099;-47
2022/12/17 20:45:07;;;;;;;47.78;27.42;;;0.20;99.90;;;;;;5049307;28;20045;-45
2022/12/17 20:47:34;;;;;;;47.95;27.48;;;0.10;99.90;;;;;;5046302;28;20052;-50
2022/12/17 20:50:00;;;;;;;47.55;26.83;;;0.10;99.90;;;;;;5035603;28;20056;-45
2022/12/17 20:52:27;;;;;;;50.10;26.98;;;0.10;99.90;;;;;;5036249;28;20128;-47
2022/12/17 20:54:54;;;;;;;51.83;27.65;;;0.10;99.90;;;;;;5037448;28;20054;-47
2022/12/17 20:57:21;;;;;;;48.60;26.90;;;0.10;99.90;;;;;;5047275;28;20098;-48
2022/12/17 20:59:47;;;;;;;45.67;26.55;;;0.10;99.90;;;;;;5042727;28;20315;-47
2022/12/17 21:02:15;;;;;;;48.90;27.10;;;0.10;99.90;;;;;;5041628;28;20041;-46
2022/12/17 21:04:42;;;;;;;45.92;26.05;;;0.10;99.90;;;;;;5054008;28;20041;-48
2022/12/17 21:07:09;;;;;;;48.30;26.92;;;0.10;99.90;;;;;;5041315;28;20046;-47
2022/12/17 21:09:35;;;;;;;49.08;25.80;;;0.10;99.90;;;;;;5053885;28;20142;-46
2022/12/17 21:12:02;;;;;;;44.78;26.35;;;0.00;99.90;;;;;;5043685;28;20045;-46
2022/12/17 21:14:29;;;;;;;51.20;29.10;;;0.00;99.90;;;;;;5034384;28;20048;-47
2022/12/17 21:17:01;;;;;;;47.17;27.27;;;0.00;99.90;;;;;;5042335;28;20129;-46
2022/12/17 21:19:30;;;;;;;50.90;28.50;;;0.00;99.90;;;;;;5041188;28;20510;-47
2022/12/17 21:21:57;;;;;;;55.70;31.77;;;0.00;99.90;;;;;;5047847;28;20408;-45
2022/12/17 21:24:24;;;;;;;67.03;39.17;;;0.00;99.90;;;;;;5041613;28;20088;-47
2022/12/17 21:26:51;;;;;;;58.42;32.58;;;0.00;99.90;;;;;;5033975;28;20396;-47
2022/12/17 21:29:17;;;;;;;52.28;29.58;;;0.00;99.90;;;;;;5050770;28;20131;-45
2022/12/17 21:31:44;;;;;;;55.05;30.55;;;0.00;99.90;;;;;;5034278;28;20068;-47
2022/12/17 21:34:11;;;;;;;50.63;28.92;;;0.00;99.90;;;;;;5034739;28;20075;-46
2022/12/17 21:36:38;;;;;;;64.22;37.72;;;0.00;99.90;;;;;;5049362;28;20033;-46
2022/12/17 21:39:06;;;;;;;56.42;33.15;;;0.00;99.90;;;;;;5048200;28;20476;-43
2022/12/17 21:41:35;;;;;;;58.08;33.90;;;0.00;99.90;;;;;;5041122;28;20106;-49
2022/12/17 21:44:01;;;;;;;59.78;32.45;;;0.00;99.90;;;;;;5051777;28;20048;-48
2022/12/17 21:46:28;;;;;;;55.97;30.42;;;-0.10;99.90;;;;;;5037706;28;20041;-47
2022/12/17 21:48:55;;;;;;;52.80;30.48;;;-0.10;99.90;;;;;;5040432;28;20061;-46
2022/12/17 21:51:22;;;;;;;58.47;30.48;;;-0.10;99.90;;;;;;5048163;28;20091;-45
2022/12/17 21:53:48;;;;;;;52.53;30.42;;;-0.10;99.90;;;;;;5049506;28;20049;-45
2022/12/17 21:56:15;;;;;;;52.20;29.25;;;-0.10;99.90;;;;;;5052859;28;20041;-47
2022/12/17 21:58:42;;;;;;;54.10;30.17;;;-0.10;99.90;;;;;;5040475;28;20043;-49
2022/12/17 22:01:09;;;;;;;47.45;29.63;;;-0.10;99.90;;;;;;5033590;28;20041;-50
2022/12/17 22:03:44;;;;;;;50.13;29.35;;;-0.20;99.90;;;;;;5038787;28;20400;-46
2022/12/17 22:06:11;;;;;;;49.50;30.23;;;-0.10;99.90;;;;;;5033748;28;20111;-43
2022/12/17 22:08:38;;;;;;;49.50;29.60;;;-0.20;99.90;;;;;;5043012;28;20037;-47
2022/12/17 22:11:05;;;;;;;49.38;28.77;;;-0.20;99.90;;;;;;5034284;28;20069;-42
2022/12/17 22:16:18;;;;;;;51.47;29.40;;;-0.10;99.90;;;;;;5043227;28;20069;-47
2022/12/17 22:18:44;;;;;;;51.33;30.35;;;-0.10;99.90;;;;;;5033418;28;20286;-49
2022/12/17 22:21:11;;;;;;;51.55;29.83;;;-0.20;99.90;;;;;;5035449;28;20080;-47
2022/12/17 22:23:38;;;;;;;48.95;27.25;;;-0.20;99.90;;;;;;5037784;28;20134;-46
2022/12/17 22:26:05;;;;;;;46.60;27.45;;;-0.20;99.90;;;;;;5034687;28;20037;-50
2022/12/17 22:28:32;;;;;;;50.95;29.60;;;-0.20;99.90;;;;;;5051223;28;20041;-44
2022/12/17 22:33:45;;;;;;;;;;;-0.30;99.90;;;;;;5034017;28;20048;-45
2022/12/17 22:36:32;;;;;;;48.50;26.15;;;-0.30;99.90;;;;;;5038652;28;20358;-46
2022/12/17 22:39:18;;;;;;;49.35;27.92;;;-0.30;99.90;;;;;;5033139;28;20045;-44
2022/12/17 22:45:10;;;;;;;53.22;28.13;;;-0.30;99.90;;;;;;5037978;28;20040;-47
2022/12/17 22:47:38;;;;;;;53.00;28.10;;;-0.30;99.90;;;;;;5040648;28;20041;-53
2022/12/17 22:50:05;;;;;;;47.67;26.85;;;-0.30;99.90;;;;;;5038414;28;20493;-45
2022/12/17 22:52:32;;;;;;;52.08;29.42;;;-0.30;99.90;;;;;;5038722;28;20438;-44
2022/12/17 22:54:59;;;;;;;44.65;26.63;;;-0.30;99.90;;;;;;5046467;28;20037;-45
2022/12/17 22:57:26;;;;;;;46.38;26.90;;;-0.30;99.90;;;;;;5037624;28;20048;-46
2022/12/17 23:00:03;;;;;;;48.20;26.17;;;-0.30;99.90;;;;;;5036605;28;20075;-47
2022/12/17 23:02:30;;;;;;;49.75;27.65;;;-0.30;99.90;;;;;;5043951;28;20041;-50
2022/12/17 23:04:57;;;;;;;47.65;27.23;;;-0.30;99.90;;;;;;5046677;28;20501;-48
2022/12/17 23:07:24;;;;;;;50.92;27.42;;;-0.30;99.90;;;;;;5041596;28;20053;-45
2022/12/17 23:09:57;;;;;;;51.97;28.05;;;-0.30;99.90;;;;;;5040610;28;20132;-47
2022/12/17 23:15:09;;;;;;;53.90;27.90;;;-0.20;99.90;;;;;;5037739;28;20041;-46
2022/12/17 23:17:36;;;;;;;49.42;29.02;;;-0.10;99.90;;;;;;5037857;28;20111;-48
2022/12/17 23:20:03;;;;;;;47.00;27.10;;;-0.10;99.90;;;;;;5041649;28;20049;-47
2022/12/17 23:22:29;;;;;;;47.63;27.35;;;-0.10;99.90;;;;;;5042276;28;20052;-44
2022/12/17 23:24:56;;;;;;;43.83;24.70;;;-0.10;99.90;;;;;;5036317;28;20072;-46
2022/12/17 23:27:23;;;;;;;49.05;29.27;;;-0.10;99.90;;;;;;5044429;28;20045;-48
2022/12/17 23:29:49;;;;;;;54.22;31.38;;;0.00;99.90;;;;;;5046558;28;20112;-42
2022/12/17 23:32:16;;;;;;;55.70;30.50;;;0.00;99.90;;;;;;5042560;28;20069;-46
2022/12/17 23:34:43;;;;;;;48.70;28.75;;;0.00;99.90;;;;;;5043385;28;20087;-44
2022/12/17 23:37:10;;;;;;;47.83;27.67;;;0.00;99.90;;;;;;5049788;28;20036;-46
2022/12/17 23:39:36;;;;;;;44.90;26.80;;;0.00;99.90;;;;;;5043804;28;20064;-45
2022/12/17 23:42:03;;;;;;;45.63;25.75;;;0.00;99.90;;;;;;5044321;28;20045;-45
2022/12/17 23:44:30;;;;;;;43.35;25.95;;;0.00;99.90;;;;;;5042698;28;20423;-44
2022/12/17 23:46:56;;;;;;;43.58;27.40;;;-0.10;99.90;;;;;;5042484;28;20041;-47
2022/12/17 23:49:23;;;;;;;42.47;25.42;;;-0.10;99.90;;;;;;5044642;28;20087;-49
2022/12/17 23:51:50;;;;;;;43.42;25.38;;;-0.10;99.90;;;;;;5038309;28;20116;-49
2022/12/17 23:54:17;;;;;;;41.88;25.20;;;-0.10;99.90;;;;;;5049640;28;20096;-50
2022/12/17 23:56:44;;;;;;;45.30;25.90;;;-0.10;99.90;;;;;;5052080;28;20037;-45
2022/12/17 23:59:11;;;;;;;41.78;25.70;;;-0.10;99.90;;;;;;5047797;28;20067;-49
